sensor_id;sensor_type;location;lat;lon;timestamp;temperature;humidity
30280;DHT22;17097;50.916;5.344;2024-01-07T00:01:26;5.30;99.90
30280;DHT22;17097;50.916;5.344;2024-01-07T00:03:52;5.40;99.90
30280;DHT22;17097;50.916;5.344;2024-01-07T00:06:18;5.20;99.90
30280;DHT22;17097;50.916;5.344;2024-01-07T00:08:44;5.20;99.90
30280;DHT22;17097;50.916;5.344;2024-01-07T00:11:09;5.10;99.90
30280;DHT22;17097;50.916;5.344;2024-01-07T00:13:37;5.20;99.90
30280;DHT22;17097;50.916;5.344;2024-01-07T00:16:06;5.40;99.90
30280;DHT22;17097;50.916;5.344;2024-01-07T00:18:32;5.40;99.90
30280;DHT22;17097;50.916;5.344;2024-01-07T00:21:02;5.70;99.90
30280;DHT22;17097;50.916;5.344;2024-01-07T00:23:27;5.80;99.90
30280;DHT22;17097;50.916;5.344;2024-01-07T00:25:53;5.70;99.90
30280;DHT22;17097;50.916;5.344;2024-01-07T00:28:20;5.50;99.90
30280;DHT22;17097;50.916;5.344;2024-01-07T00:30:48;5.30;99.90
30280;DHT22;17097;50.916;5.344;2024-01-07T00:33:14;5.60;99.90
30280;DHT22;17097;50.916;5.344;2024-01-07T00:35:39;5.60;99.90
30280;DHT22;17097;50.916;5.344;2024-01-07T00:38:07;5.40;99.90
30280;DHT22;17097;50.916;5.344;2024-01-07T00:40:33;5.40;99.90
30280;DHT22;17097;50.916;5.344;2024-01-07T00:43:00;5.60;99.90
30280;DHT22;17097;50.916;5.344;2024-01-07T00:45:26;5.60;99.90
30280;DHT22;17097;50.916;5.344;2024-01-07T00:47:52;5.60;99.90
30280;DHT22;17097;50.916;5.344;2024-01-07T00:50:20;5.70;99.90
30280;DHT22;17097;50.916;5.344;2024-01-07T00:52:45;5.50;99.90
30280;DHT22;17097;50.916;5.344;2024-01-07T00:55:11;5.40;99.90
30280;DHT22;17097;50.916;5.344;2024-01-07T00:57:37;5.30;99.90
30280;DHT22;17097;50.916;5.344;2024-01-07T01:00:07;5.10;99.90
30280;DHT22;17097;50.916;5.344;2024-01-07T01:02:33;5.20;99.90
30280;DHT22;17097;50.916;5.344;2024-01-07T01:04:59;5.40;99.90
30280;DHT22;17097;50.916;5.344;2024-01-07T01:07:24;5.40;99.90
30280;DHT22;17097;50.916;5.344;2024-01-07T01:09:50;5.40;99.90
30280;DHT22;17097;50.916;5.344;2024-01-07T01:12:18;5.50;99.90
30280;DHT22;17097;50.916;5.344;2024-01-07T01:14:46;5.50;99.90
30280;DHT22;17097;50.916;5.344;2024-01-07T01:17:11;5.40;99.90
30280;DHT22;17097;50.916;5.344;2024-01-07T01:19:37;5.40;99.90
30280;DHT22;17097;50.916;5.344;2024-01-07T01:22:05;5.40;99.90
30280;DHT22;17097;50.916;5.344;2024-01-07T01:24:33;5.40;99.90
30280;DHT22;17097;50.916;5.344;2024-01-07T01:26:58;5.60;99.90
30280;DHT22;17097;50.916;5.344;2024-01-07T01:29:24;5.60;99.90
30280;DHT22;17097;50.916;5.344;2024-01-07T01:31:52;5.50;99.90
30280;DHT22;17097;50.916;5.344;2024-01-07T01:34:18;5.60;99.90
30280;DHT22;17097;50.916;5.344;2024-01-07T01:36:43;5.70;99.90
30280;DHT22;17097;50.916;5.344;2024-01-07T01:39:09;5.60;99.90
30280;DHT22;17097;50.916;5.344;2024-01-07T01:41:35;5.60;99.90
30280;DHT22;17097;50.916;5.344;2024-01-07T01:44:03;5.50;99.90
30280;DHT22;17097;50.916;5.344;2024-01-07T01:46:29;5.60;99.90
30280;DHT22;17097;50.916;5.344;2024-01-07T01:48:55;5.60;99.90
30280;DHT22;17097;50.916;5.344;2024-01-07T01:51:21;5.60;99.90
30280;DHT22;17097;50.916;5.344;2024-01-07T01:53:50;5.50;99.90
30280;DHT22;17097;50.916;5.344;2024-01-07T01:56:17;5.50;99.90
30280;DHT22;17097;50.916;5.344;2024-01-07T01:58:44;5.50;99.90
30280;DHT22;17097;50.916;5.344;2024-01-07T02:01:10;5.50;99.90
30280;DHT22;17097;50.916;5.344;2024-01-07T02:03:36;5.50;99.90
30280;DHT22;17097;50.916;5.344;2024-01-07T02:06:01;5.50;99.90
30280;DHT22;17097;50.916;5.344;2024-01-07T02:08:27;5.40;99.90
30280;DHT22;17097;50.916;5.344;2024-01-07T02:10:55;5.30;99.90
30280;DHT22;17097;50.916;5.344;2024-01-07T02:13:23;5.50;99.90
30280;DHT22;17097;50.916;5.344;2024-01-07T02:15:49;5.40;99.90
30280;DHT22;17097;50.916;5.344;2024-01-07T02:18:14;5.30;99.90
30280;DHT22;17097;50.916;5.344;2024-01-07T02:20:40;5.30;99.90
30280;DHT22;17097;50.916;5.344;2024-01-07T02:23:08;5.30;99.90
30280;DHT22;17097;50.916;5.344;2024-01-07T02:25:35;5.40;99.90
30280;DHT22;17097;50.916;5.344;2024-01-07T02:28:00;5.50;99.90
30280;DHT22;17097;50.916;5.344;2024-01-07T02:30:28;5.30;99.90
30280;DHT22;17097;50.916;5.344;2024-01-07T02:32:54;5.30;99.90
30280;DHT22;17097;50.916;5.344;2024-01-07T02:35:19;5.30;99.90
30280;DHT22;17097;50.916;5.344;2024-01-07T02:37:45;5.40;99.90
30280;DHT22;17097;50.916;5.344;2024-01-07T02:40:11;5.50;99.90
30280;DHT22;17097;50.916;5.344;2024-01-07T02:42:36;5.40;99.90
30280;DHT22;17097;50.916;5.344;2024-01-07T02:45:02;5.30;99.90
30280;DHT22;17097;50.916;5.344;2024-01-07T02:47:30;5.30;99.90
30280;DHT22;17097;50.916;5.344;2024-01-07T02:49:56;5.40;99.90
30280;DHT22;17097;50.916;5.344;2024-01-07T02:52:21;5.50;99.90
30280;DHT22;17097;50.916;5.344;2024-01-07T02:54:47;5.30;99.90
30280;DHT22;17097;50.916;5.344;2024-01-07T02:57:12;5.30;99.90
30280;DHT22;17097;50.916;5.344;2024-01-07T02:59:38;5.20;99.90
30280;DHT22;17097;50.916;5.344;2024-01-07T03:02:04;5.40;99.90
30280;DHT22;17097;50.916;5.344;2024-01-07T03:04:31;5.50;99.90
30280;DHT22;17097;50.916;5.344;2024-01-07T03:06:58;5.40;99.90
30280;DHT22;17097;50.916;5.344;2024-01-07T03:09:24;5.50;99.90
30280;DHT22;17097;50.916;5.344;2024-01-07T03:11:50;5.40;99.90
30280;DHT22;17097;50.916;5.344;2024-01-07T03:14:18;5.40;99.90
30280;DHT22;17097;50.916;5.344;2024-01-07T03:16:45;5.40;99.90
30280;DHT22;17097;50.916;5.344;2024-01-07T03:19:11;5.30;99.90
30280;DHT22;17097;50.916;5.344;2024-01-07T03:21:37;5.30;99.90
30280;DHT22;17097;50.916;5.344;2024-01-07T03:24:02;5.40;99.90
30280;DHT22;17097;50.916;5.344;2024-01-07T03:26:30;5.20;99.90
30280;DHT22;17097;50.916;5.344;2024-01-07T03:28:59;5.30;99.90
30280;DHT22;17097;50.916;5.344;2024-01-07T03:31:25;5.20;99.90
30280;DHT22;17097;50.916;5.344;2024-01-07T03:33:53;5.10;99.90
30280;DHT22;17097;50.916;5.344;2024-01-07T03:36:21;5.40;99.90
30280;DHT22;17097;50.916;5.344;2024-01-07T03:38:49;5.20;99.90
30280;DHT22;17097;50.916;5.344;2024-01-07T03:41:19;5.20;99.90
30280;DHT22;17097;50.916;5.344;2024-01-07T03:43:50;5.10;99.90
30280;DHT22;17097;50.916;5.344;2024-01-07T03:46:16;5.10;99.90
30280;DHT22;17097;50.916;5.344;2024-01-07T03:48:43;5.10;99.90
30280;DHT22;17097;50.916;5.344;2024-01-07T03:51:11;5.00;99.90
30280;DHT22;17097;50.916;5.344;2024-01-07T03:53:37;5.00;99.90
30280;DHT22;17097;50.916;5.344;2024-01-07T03:56:02;5.00;99.90
30280;DHT22;17097;50.916;5.344;2024-01-07T03:58:30;5.10;99.90
30280;DHT22;17097;50.916;5.344;2024-01-07T04:00:56;5.20;99.90
30280;DHT22;17097;50.916;5.344;2024-01-07T04:03:24;5.30;99.90
30280;DHT22;17097;50.916;5.344;2024-01-07T04:05:49;5.30;99.90
30280;DHT22;17097;50.916;5.344;2024-01-07T04:08:15;5.10;99.90
30280;DHT22;17097;50.916;5.344;2024-01-07T04:10:41;5.00;99.90
30280;DHT22;17097;50.916;5.344;2024-01-07T04:13:09;4.80;99.90
30280;DHT22;17097;50.916;5.344;2024-01-07T04:15:37;4.80;99.90
30280;DHT22;17097;50.916;5.344;2024-01-07T04:18:06;4.80;99.90
30280;DHT22;17097;50.916;5.344;2024-01-07T04:20:32;4.80;99.90
30280;DHT22;17097;50.916;5.344;2024-01-07T04:22:57;4.90;99.90
30280;DHT22;17097;50.916;5.344;2024-01-07T04:25:24;4.80;99.90
30280;DHT22;17097;50.916;5.344;2024-01-07T04:27:53;4.90;99.90
30280;DHT22;17097;50.916;5.344;2024-01-07T04:30:18;4.90;99.90
30280;DHT22;17097;50.916;5.344;2024-01-07T04:32:49;4.90;99.90
30280;DHT22;17097;50.916;5.344;2024-01-07T04:35:14;4.80;99.90
30280;DHT22;17097;50.916;5.344;2024-01-07T04:37:40;4.80;99.90
30280;DHT22;17097;50.916;5.344;2024-01-07T04:40:06;4.90;99.90
30280;DHT22;17097;50.916;5.344;2024-01-07T04:42:34;4.80;99.90
30280;DHT22;17097;50.916;5.344;2024-01-07T04:45:02;5.00;99.90
30280;DHT22;17097;50.916;5.344;2024-01-07T04:47:29;5.10;99.90
30280;DHT22;17097;50.916;5.344;2024-01-07T04:49:58;5.00;99.90
30280;DHT22;17097;50.916;5.344;2024-01-07T04:52:24;5.00;99.90
30280;DHT22;17097;50.916;5.344;2024-01-07T04:54:51;5.00;99.90
30280;DHT22;17097;50.916;5.344;2024-01-07T04:57:17;5.00;99.90
30280;DHT22;17097;50.916;5.344;2024-01-07T04:59:42;5.00;99.90
30280;DHT22;17097;50.916;5.344;2024-01-07T05:02:10;4.90;99.90
30280;DHT22;17097;50.916;5.344;2024-01-07T05:04:36;4.80;99.90
30280;DHT22;17097;50.916;5.344;2024-01-07T05:07:02;4.90;99.90
30280;DHT22;17097;50.916;5.344;2024-01-07T05:09:31;4.80;99.90
30280;DHT22;17097;50.916;5.344;2024-01-07T05:11:57;4.80;99.90
30280;DHT22;17097;50.916;5.344;2024-01-07T05:14:22;4.90;99.90
30280;DHT22;17097;50.916;5.344;2024-01-07T05:16:48;4.80;99.90
30280;DHT22;17097;50.916;5.344;2024-01-07T05:19:14;4.90;99.90
30280;DHT22;17097;50.916;5.344;2024-01-07T05:21:40;4.90;99.90
30280;DHT22;17097;50.916;5.344;2024-01-07T05:24:05;5.00;99.90
30280;DHT22;17097;50.916;5.344;2024-01-07T05:26:37;4.90;99.90
30280;DHT22;17097;50.916;5.344;2024-01-07T05:29:03;4.80;99.90
30280;DHT22;17097;50.916;5.344;2024-01-07T05:31:28;4.80;99.90
30280;DHT22;17097;50.916;5.344;2024-01-07T05:33:54;4.90;99.90
30280;DHT22;17097;50.916;5.344;2024-01-07T05:36:19;4.90;99.90
30280;DHT22;17097;50.916;5.344;2024-01-07T05:38:45;4.90;99.90
30280;DHT22;17097;50.916;5.344;2024-01-07T05:41:11;4.80;99.90
30280;DHT22;17097;50.916;5.344;2024-01-07T05:43:38;4.90;99.90
30280;DHT22;17097;50.916;5.344;2024-01-07T05:46:06;4.90;99.90
30280;DHT22;17097;50.916;5.344;2024-01-07T05:48:43;4.80;99.90
30280;DHT22;17097;50.916;5.344;2024-01-07T05:51:12;4.80;99.90
30280;DHT22;17097;50.916;5.344;2024-01-07T05:53:42;4.90;99.90
30280;DHT22;17097;50.916;5.344;2024-01-07T05:56:08;4.90;99.90
30280;DHT22;17097;50.916;5.344;2024-01-07T05:58:34;4.80;99.90
30280;DHT22;17097;50.916;5.344;2024-01-07T06:01:02;4.80;99.90
30280;DHT22;17097;50.916;5.344;2024-01-07T06:03:27;4.80;99.90
30280;DHT22;17097;50.916;5.344;2024-01-07T06:05:53;4.90;99.90
30280;DHT22;17097;50.916;5.344;2024-01-07T06:08:19;4.90;99.90
30280;DHT22;17097;50.916;5.344;2024-01-07T06:10:47;5.00;99.90
30280;DHT22;17097;50.916;5.344;2024-01-07T06:13:12;5.00;99.90
30280;DHT22;17097;50.916;5.344;2024-01-07T06:15:38;5.00;99.90
30280;DHT22;17097;50.916;5.344;2024-01-07T06:18:06;5.10;99.90
30280;DHT22;17097;50.916;5.344;2024-01-07T06:20:33;4.90;99.90
30280;DHT22;17097;50.916;5.344;2024-01-07T06:22:59;4.90;99.90
30280;DHT22;17097;50.916;5.344;2024-01-07T06:25:27;5.00;99.90
30280;DHT22;17097;50.916;5.344;2024-01-07T06:27:53;4.90;99.90
30280;DHT22;17097;50.916;5.344;2024-01-07T06:30:18;4.90;99.90
30280;DHT22;17097;50.916;5.344;2024-01-07T06:32:48;4.70;99.90
30280;DHT22;17097;50.916;5.344;2024-01-07T06:35:17;4.70;99.90
30280;DHT22;17097;50.916;5.344;2024-01-07T06:37:42;4.70;99.90
30280;DHT22;17097;50.916;5.344;2024-01-07T06:40:08;4.70;99.90
30280;DHT22;17097;50.916;5.344;2024-01-07T06:42:34;4.70;99.90
30280;DHT22;17097;50.916;5.344;2024-01-07T06:45:03;4.90;99.90
30280;DHT22;17097;50.916;5.344;2024-01-07T06:47:29;4.60;99.90
30280;DHT22;17097;50.916;5.344;2024-01-07T06:49:54;4.60;99.90
30280;DHT22;17097;50.916;5.344;2024-01-07T06:52:20;4.50;99.90
30280;DHT22;17097;50.916;5.344;2024-01-07T06:54:46;4.50;99.90
30280;DHT22;17097;50.916;5.344;2024-01-07T06:57:12;4.40;99.90
30280;DHT22;17097;50.916;5.344;2024-01-07T06:59:39;4.40;99.90
30280;DHT22;17097;50.916;5.344;2024-01-07T07:02:05;4.50;99.90
30280;DHT22;17097;50.916;5.344;2024-01-07T07:04:30;4.50;99.90
30280;DHT22;17097;50.916;5.344;2024-01-07T07:06:58;4.40;99.90
30280;DHT22;17097;50.916;5.344;2024-01-07T07:09:25;4.40;99.90
30280;DHT22;17097;50.916;5.344;2024-01-07T07:11:51;4.40;99.90
30280;DHT22;17097;50.916;5.344;2024-01-07T07:14:17;4.30;99.90
30280;DHT22;17097;50.916;5.344;2024-01-07T07:16:42;4.30;99.90
30280;DHT22;17097;50.916;5.344;2024-01-07T07:19:08;4.40;99.90
30280;DHT22;17097;50.916;5.344;2024-01-07T07:21:33;4.40;99.90
30280;DHT22;17097;50.916;5.344;2024-01-07T07:23:59;4.40;99.90
30280;DHT22;17097;50.916;5.344;2024-01-07T07:26:24;4.40;99.90
30280;DHT22;17097;50.916;5.344;2024-01-07T07:28:53;4.30;99.90
30280;DHT22;17097;50.916;5.344;2024-01-07T07:31:18;4.40;99.90
30280;DHT22;17097;50.916;5.344;2024-01-07T07:33:44;4.70;99.90
30280;DHT22;17097;50.916;5.344;2024-01-07T07:36:09;4.80;99.90
30280;DHT22;17097;50.916;5.344;2024-01-07T07:38:35;4.80;99.90
30280;DHT22;17097;50.916;5.344;2024-01-07T07:41:01;4.80;99.90
30280;DHT22;17097;50.916;5.344;2024-01-07T07:43:28;4.60;99.90
30280;DHT22;17097;50.916;5.344;2024-01-07T07:45:55;4.80;99.90
30280;DHT22;17097;50.916;5.344;2024-01-07T07:48:25;4.80;99.90
30280;DHT22;17097;50.916;5.344;2024-01-07T07:50:54;4.60;99.90
30280;DHT22;17097;50.916;5.344;2024-01-07T07:53:20;4.60;99.90
30280;DHT22;17097;50.916;5.344;2024-01-07T07:55:45;4.60;99.90
30280;DHT22;17097;50.916;5.344;2024-01-07T07:58:13;4.50;99.90
30280;DHT22;17097;50.916;5.344;2024-01-07T08:00:39;4.40;99.90
30280;DHT22;17097;50.916;5.344;2024-01-07T08:03:04;4.30;99.90
30280;DHT22;17097;50.916;5.344;2024-01-07T08:05:30;4.40;99.90
30280;DHT22;17097;50.916;5.344;2024-01-07T08:07:56;4.20;99.90
30280;DHT22;17097;50.916;5.344;2024-01-07T08:10:21;4.20;99.90
30280;DHT22;17097;50.916;5.344;2024-01-07T08:12:49;4.30;99.90
30280;DHT22;17097;50.916;5.344;2024-01-07T08:15:15;4.30;99.90
30280;DHT22;17097;50.916;5.344;2024-01-07T08:17:41;4.20;99.90
30280;DHT22;17097;50.916;5.344;2024-01-07T08:20:09;4.30;99.90
30280;DHT22;17097;50.916;5.344;2024-01-07T08:22:38;4.30;99.90
30280;DHT22;17097;50.916;5.344;2024-01-07T08:25:03;4.30;99.90
30280;DHT22;17097;50.916;5.344;2024-01-07T08:27:29;4.30;99.90
30280;DHT22;17097;50.916;5.344;2024-01-07T08:29:55;4.40;99.90
30280;DHT22;17097;50.916;5.344;2024-01-07T08:32:20;4.30;99.90
30280;DHT22;17097;50.916;5.344;2024-01-07T08:34:48;4.30;99.90
30280;DHT22;17097;50.916;5.344;2024-01-07T08:37:13;4.30;99.90
30280;DHT22;17097;50.916;5.344;2024-01-07T08:39:39;4.30;99.90
30280;DHT22;17097;50.916;5.344;2024-01-07T08:42:07;4.40;99.90
30280;DHT22;17097;50.916;5.344;2024-01-07T08:44:33;4.20;99.90
30280;DHT22;17097;50.916;5.344;2024-01-07T08:47:01;4.20;99.90
30280;DHT22;17097;50.916;5.344;2024-01-07T08:49:28;4.30;99.90
30280;DHT22;17097;50.916;5.344;2024-01-07T08:51:56;4.10;99.90
30280;DHT22;17097;50.916;5.344;2024-01-07T08:54:22;4.20;99.90
30280;DHT22;17097;50.916;5.344;2024-01-07T08:56:51;4.10;99.90
30280;DHT22;17097;50.916;5.344;2024-01-07T08:59:16;4.30;99.90
30280;DHT22;17097;50.916;5.344;2024-01-07T09:01:42;4.40;99.90
30280;DHT22;17097;50.916;5.344;2024-01-07T09:04:07;4.40;99.90
30280;DHT22;17097;50.916;5.344;2024-01-07T09:06:35;4.30;99.90
30280;DHT22;17097;50.916;5.344;2024-01-07T09:09:01;4.20;99.90
30280;DHT22;17097;50.916;5.344;2024-01-07T09:11:33;4.20;99.90
30280;DHT22;17097;50.916;5.344;2024-01-07T09:13:59;4.20;99.90
30280;DHT22;17097;50.916;5.344;2024-01-07T09:16:25;4.20;99.90
30280;DHT22;17097;50.916;5.344;2024-01-07T09:18:52;4.20;99.90
30280;DHT22;17097;50.916;5.344;2024-01-07T09:21:19;4.20;99.90
30280;DHT22;17097;50.916;5.344;2024-01-07T09:23:45;4.10;99.90
30280;DHT22;17097;50.916;5.344;2024-01-07T09:26:11;4.30;99.90
30280;DHT22;17097;50.916;5.344;2024-01-07T09:28:38;4.30;99.90
30280;DHT22;17097;50.916;5.344;2024-01-07T09:31:04;4.50;99.90
30280;DHT22;17097;50.916;5.344;2024-01-07T09:33:29;4.50;99.90
30280;DHT22;17097;50.916;5.344;2024-01-07T09:35:55;4.40;99.90
30280;DHT22;17097;50.916;5.344;2024-01-07T09:38:21;4.40;99.90
30280;DHT22;17097;50.916;5.344;2024-01-07T09:40:47;4.40;99.90
30280;DHT22;17097;50.916;5.344;2024-01-07T09:43:14;4.20;99.90
30280;DHT22;17097;50.916;5.344;2024-01-07T09:45:42;4.40;99.90
30280;DHT22;17097;50.916;5.344;2024-01-07T09:48:10;4.40;99.90
30280;DHT22;17097;50.916;5.344;2024-01-07T09:50:36;4.20;99.90
30280;DHT22;17097;50.916;5.344;2024-01-07T09:53:02;4.20;99.90
30280;DHT22;17097;50.916;5.344;2024-01-07T09:55:40;4.20;99.90
30280;DHT22;17097;50.916;5.344;2024-01-07T09:58:11;4.20;99.90
30280;DHT22;17097;50.916;5.344;2024-01-07T10:00:38;4.20;99.90
30280;DHT22;17097;50.916;5.344;2024-01-07T10:03:06;4.20;99.90
30280;DHT22;17097;50.916;5.344;2024-01-07T10:05:32;4.20;99.90
30280;DHT22;17097;50.916;5.344;2024-01-07T10:07:57;4.40;99.90
30280;DHT22;17097;50.916;5.344;2024-01-07T10:10:23;4.50;99.90
30280;DHT22;17097;50.916;5.344;2024-01-07T10:12:51;4.30;99.90
30280;DHT22;17097;50.916;5.344;2024-01-07T10:15:18;4.40;99.90
30280;DHT22;17097;50.916;5.344;2024-01-07T10:17:45;4.50;99.90
30280;DHT22;17097;50.916;5.344;2024-01-07T10:20:11;4.50;99.90
30280;DHT22;17097;50.916;5.344;2024-01-07T10:22:38;4.50;99.90
30280;DHT22;17097;50.916;5.344;2024-01-07T10:25:04;4.60;99.90
30280;DHT22;17097;50.916;5.344;2024-01-07T10:27:33;4.60;99.90
30280;DHT22;17097;50.916;5.344;2024-01-07T10:29:59;4.50;99.90
30280;DHT22;17097;50.916;5.344;2024-01-07T10:32:25;4.20;99.90
30280;DHT22;17097;50.916;5.344;2024-01-07T10:35:02;4.20;99.90
30280;DHT22;17097;50.916;5.344;2024-01-07T10:37:28;4.40;99.90
30280;DHT22;17097;50.916;5.344;2024-01-07T10:39:58;4.30;99.90
30280;DHT22;17097;50.916;5.344;2024-01-07T10:42:30;4.40;99.90
30280;DHT22;17097;50.916;5.344;2024-01-07T10:44:56;4.30;99.90
30280;DHT22;17097;50.916;5.344;2024-01-07T10:47:22;4.20;99.90
30280;DHT22;17097;50.916;5.344;2024-01-07T10:49:50;4.30;99.90
30280;DHT22;17097;50.916;5.344;2024-01-07T10:52:16;4.30;99.90
30280;DHT22;17097;50.916;5.344;2024-01-07T10:54:44;4.30;99.90
30280;DHT22;17097;50.916;5.344;2024-01-07T10:59:47;4.50;99.90
30280;DHT22;17097;50.916;5.344;2024-01-07T11:02:14;4.50;99.90
30280;DHT22;17097;50.916;5.344;2024-01-07T11:09:42;4.40;99.90
30280;DHT22;17097;50.916;5.344;2024-01-07T11:12:11;4.30;99.90
30280;DHT22;17097;50.916;5.344;2024-01-07T11:14:41;4.30;99.90
30280;DHT22;17097;50.916;5.344;2024-01-07T11:17:13;4.20;99.90
30280;DHT22;17097;50.916;5.344;2024-01-07T11:19:52;4.30;99.90
30280;DHT22;17097;50.916;5.344;2024-01-07T11:22:29;4.20;99.90
30280;DHT22;17097;50.916;5.344;2024-01-07T11:24:55;4.20;99.90
30280;DHT22;17097;50.916;5.344;2024-01-07T11:27:22;4.20;99.90
30280;DHT22;17097;50.916;5.344;2024-01-07T11:30:03;4.30;99.90
30280;DHT22;17097;50.916;5.344;2024-01-07T11:32:33;4.20;99.90
30280;DHT22;17097;50.916;5.344;2024-01-07T11:35:00;4.30;99.90
30280;DHT22;17097;50.916;5.344;2024-01-07T11:37:26;4.30;99.90
30280;DHT22;17097;50.916;5.344;2024-01-07T11:39:56;4.30;99.90
30280;DHT22;17097;50.916;5.344;2024-01-07T11:42:23;4.20;99.90
30280;DHT22;17097;50.916;5.344;2024-01-07T11:47:18;4.20;99.90
30280;DHT22;17097;50.916;5.344;2024-01-07T11:49:45;4.20;99.90
30280;DHT22;17097;50.916;5.344;2024-01-07T11:52:11;4.30;99.90
30280;DHT22;17097;50.916;5.344;2024-01-07T11:54:40;4.20;99.90
30280;DHT22;17097;50.916;5.344;2024-01-07T11:57:07;4.20;99.90
30280;DHT22;17097;50.916;5.344;2024-01-07T11:59:35;4.10;99.90
30280;DHT22;17097;50.916;5.344;2024-01-07T12:02:04;4.20;99.90
30280;DHT22;17097;50.916;5.344;2024-01-07T12:04:32;4.10;99.90
30280;DHT22;17097;50.916;5.344;2024-01-07T12:07:01;4.00;99.90
30280;DHT22;17097;50.916;5.344;2024-01-07T12:09:27;4.00;99.90
30280;DHT22;17097;50.916;5.344;2024-01-07T12:11:53;4.00;99.90
30280;DHT22;17097;50.916;5.344;2024-01-07T12:14:19;4.10;99.90
30280;DHT22;17097;50.916;5.344;2024-01-07T12:16:48;4.10;99.90
30280;DHT22;17097;50.916;5.344;2024-01-07T12:19:16;4.10;99.90
30280;DHT22;17097;50.916;5.344;2024-01-07T12:21:42;4.00;99.90
30280;DHT22;17097;50.916;5.344;2024-01-07T12:24:07;4.00;99.90
30280;DHT22;17097;50.916;5.344;2024-01-07T12:26:33;4.00;99.90
30280;DHT22;17097;50.916;5.344;2024-01-07T12:29:00;3.90;99.90
30280;DHT22;17097;50.916;5.344;2024-01-07T12:31:32;3.90;99.90
30280;DHT22;17097;50.916;5.344;2024-01-07T12:33:58;4.00;99.90
30280;DHT22;17097;50.916;5.344;2024-01-07T12:36:23;4.00;99.90
30280;DHT22;17097;50.916;5.344;2024-01-07T12:38:50;4.00;99.90
30280;DHT22;17097;50.916;5.344;2024-01-07T12:41:19;3.90;99.90
30280;DHT22;17097;50.916;5.344;2024-01-07T12:43:45;3.80;99.90
30280;DHT22;17097;50.916;5.344;2024-01-07T12:46:11;3.80;99.90
30280;DHT22;17097;50.916;5.344;2024-01-07T12:48:36;3.80;99.90
30280;DHT22;17097;50.916;5.344;2024-01-07T12:51:02;3.80;99.90
30280;DHT22;17097;50.916;5.344;2024-01-07T12:53:33;3.70;99.90
30280;DHT22;17097;50.916;5.344;2024-01-07T12:56:01;3.70;99.90
30280;DHT22;17097;50.916;5.344;2024-01-07T12:58:26;3.60;99.90
30280;DHT22;17097;50.916;5.344;2024-01-07T13:00:52;3.70;99.90
30280;DHT22;17097;50.916;5.344;2024-01-07T13:03:18;3.80;99.90
30280;DHT22;17097;50.916;5.344;2024-01-07T13:05:45;3.70;99.90
30280;DHT22;17097;50.916;5.344;2024-01-07T13:08:15;3.70;99.90
30280;DHT22;17097;50.916;5.344;2024-01-07T13:10:41;3.90;99.90
30280;DHT22;17097;50.916;5.344;2024-01-07T13:13:07;3.80;99.90
30280;DHT22;17097;50.916;5.344;2024-01-07T13:15:37;3.90;99.90
30280;DHT22;17097;50.916;5.344;2024-01-07T13:18:02;4.00;99.90
30280;DHT22;17097;50.916;5.344;2024-01-07T13:20:28;4.10;99.90
30280;DHT22;17097;50.916;5.344;2024-01-07T13:22:54;4.10;99.90
30280;DHT22;17097;50.916;5.344;2024-01-07T13:25:19;4.00;99.90
30280;DHT22;17097;50.916;5.344;2024-01-07T13:27:47;4.00;99.90
30280;DHT22;17097;50.916;5.344;2024-01-07T13:30:13;4.10;99.90
30280;DHT22;17097;50.916;5.344;2024-01-07T13:32:39;4.10;99.90
30280;DHT22;17097;50.916;5.344;2024-01-07T13:35:07;4.10;99.90
30280;DHT22;17097;50.916;5.344;2024-01-07T13:37:39;4.00;99.90
30280;DHT22;17097;50.916;5.344;2024-01-07T13:40:12;4.00;99.90
30280;DHT22;17097;50.916;5.344;2024-01-07T13:42:39;4.10;99.90
30280;DHT22;17097;50.916;5.344;2024-01-07T13:45:05;4.00;99.90
30280;DHT22;17097;50.916;5.344;2024-01-07T13:47:31;4.00;99.90
30280;DHT22;17097;50.916;5.344;2024-01-07T13:49:57;4.00;99.90
30280;DHT22;17097;50.916;5.344;2024-01-07T13:52:24;4.00;99.90
30280;DHT22;17097;50.916;5.344;2024-01-07T13:54:50;4.20;99.90
30280;DHT22;17097;50.916;5.344;2024-01-07T13:57:16;4.10;99.90
30280;DHT22;17097;50.916;5.344;2024-01-07T13:59:41;4.10;99.90
30280;DHT22;17097;50.916;5.344;2024-01-07T14:02:08;4.10;99.90
30280;DHT22;17097;50.916;5.344;2024-01-07T14:04:34;4.10;99.90
30280;DHT22;17097;50.916;5.344;2024-01-07T14:07:00;4.00;99.90
30280;DHT22;17097;50.916;5.344;2024-01-07T14:09:26;3.90;99.90
30280;DHT22;17097;50.916;5.344;2024-01-07T14:11:54;4.10;99.90
30280;DHT22;17097;50.916;5.344;2024-01-07T14:14:19;4.10;99.90
30280;DHT22;17097;50.916;5.344;2024-01-07T14:16:45;4.10;99.90
30280;DHT22;17097;50.916;5.344;2024-01-07T14:19:12;4.00;99.90
30280;DHT22;17097;50.916;5.344;2024-01-07T14:21:40;3.80;99.90
30280;DHT22;17097;50.916;5.344;2024-01-07T14:24:05;3.60;99.90
30280;DHT22;17097;50.916;5.344;2024-01-07T14:26:31;3.60;99.90
30280;DHT22;17097;50.916;5.344;2024-01-07T14:28:57;3.70;99.90
30280;DHT22;17097;50.916;5.344;2024-01-07T14:31:22;3.60;99.90
30280;DHT22;17097;50.916;5.344;2024-01-07T14:33:48;3.70;99.90
30280;DHT22;17097;50.916;5.344;2024-01-07T14:36:15;3.70;99.90
30280;DHT22;17097;50.916;5.344;2024-01-07T14:38:44;3.70;99.90
30280;DHT22;17097;50.916;5.344;2024-01-07T14:41:11;3.70;99.90
30280;DHT22;17097;50.916;5.344;2024-01-07T14:43:39;3.70;99.90
30280;DHT22;17097;50.916;5.344;2024-01-07T14:46:10;3.50;99.90
30280;DHT22;17097;50.916;5.344;2024-01-07T14:48:38;3.40;99.90
30280;DHT22;17097;50.916;5.344;2024-01-07T14:51:04;3.30;99.90
30280;DHT22;17097;50.916;5.344;2024-01-07T14:53:32;3.20;99.90
30280;DHT22;17097;50.916;5.344;2024-01-07T14:56:01;3.30;99.90
30280;DHT22;17097;50.916;5.344;2024-01-07T14:58:26;3.30;99.90
30280;DHT22;17097;50.916;5.344;2024-01-07T15:00:52;3.20;99.90
30280;DHT22;17097;50.916;5.344;2024-01-07T15:03:18;3.10;99.90
30280;DHT22;17097;50.916;5.344;2024-01-07T15:05:45;3.00;99.90
30280;DHT22;17097;50.916;5.344;2024-01-07T15:08:10;3.00;99.90
30280;DHT22;17097;50.916;5.344;2024-01-07T15:10:38;3.10;99.90
30280;DHT22;17097;50.916;5.344;2024-01-07T15:13:04;3.10;99.90
30280;DHT22;17097;50.916;5.344;2024-01-07T15:15:29;3.10;99.90
30280;DHT22;17097;50.916;5.344;2024-01-07T15:17:56;3.10;99.90
30280;DHT22;17097;50.916;5.344;2024-01-07T15:20:22;3.20;99.90
30280;DHT22;17097;50.916;5.344;2024-01-07T15:22:48;3.20;99.90
30280;DHT22;17097;50.916;5.344;2024-01-07T15:25:15;3.30;99.90
30280;DHT22;17097;50.916;5.344;2024-01-07T15:27:41;3.20;99.90
30280;DHT22;17097;50.916;5.344;2024-01-07T15:30:10;3.20;99.90
30280;DHT22;17097;50.916;5.344;2024-01-07T15:32:36;3.20;99.90
30280;DHT22;17097;50.916;5.344;2024-01-07T15:35:04;3.10;99.90
30280;DHT22;17097;50.916;5.344;2024-01-07T15:37:31;3.20;99.90
30280;DHT22;17097;50.916;5.344;2024-01-07T15:39:57;3.10;99.90
30280;DHT22;17097;50.916;5.344;2024-01-07T15:42:23;3.00;99.90
30280;DHT22;17097;50.916;5.344;2024-01-07T15:44:50;3.00;99.90
30280;DHT22;17097;50.916;5.344;2024-01-07T15:47:15;2.90;99.90
30280;DHT22;17097;50.916;5.344;2024-01-07T15:49:41;2.90;99.90
30280;DHT22;17097;50.916;5.344;2024-01-07T15:52:07;3.00;99.90